Time;durP1;ratioP1;P1;durP2;ratioP2;P2;SDS_P1;SDS_P2;PMS_P1;PMS_P2;Temp;Humidity;BMP_temperature;BMP_pressure;BME280_temperature;BME280_humidity;BME280_pressure;Samples;Min_cycle;Max_cycle;Signal;HPM_P1;HPM_P2
2024/01/31 00:00:08;;;;;;;15.38;9.63;;;;;;;0.84;100.00;101864.72;5060720;28;20032;-71
2024/01/31 00:02:35;;;;;;;14.82;9.95;;;;;;;0.84;100.00;101857.19;5057777;28;20035;-71
2024/01/31 00:05:00;;;;;;;16.13;9.82;;;;;;;0.53;100.00;101812.53;5055632;28;20032;-71
2024/01/31 00:07:26;;;;;;;14.68;9.70;;;;;;;1.21;100.00;101840.34;5061340;28;20048;-72
2024/01/31 00:09:51;;;;;;;16.50;9.57;;;;;;;0.36;100.00;101802.59;5065287;28;20033;-72
2024/01/31 00:12:17;;;;;;;16.45;10.35;;;;;;;1.00;100.00;101941.28;5067260;28;20040;-71
2024/01/31 00:14:45;;;;;;;18.48;10.48;;;;;;;0.55;100.00;101827.63;5064455;28;20093;-71
2024/01/31 00:17:11;;;;;;;18.70;10.43;;;;;;;-0.09;100.00;101674.91;5059497;28;20045;-70
2024/01/31 00:19:36;;;;;;;16.15;9.57;;;;;;;0.86;100.00;101948.22;5053247;28;20029;-71
2024/01/31 00:22:02;;;;;;;16.67;9.85;;;;;;;0.61;100.00;101875.41;5057109;28;20478;-71
2024/01/31 00:24:27;;;;;;;18.17;10.27;;;;;;;0.62;100.00;102017.22;5055183;28;20107;-70
2024/01/31 00:26:53;;;;;;;16.20;10.13;;;;;;;0.72;100.00;102027.72;5060075;28;20487;-70
2024/01/31 00:29:18;;;;;;;14.45;9.85;;;;;;;0.72;100.00;101991.81;5060331;28;20036;-70
2024/01/31 00:31:44;;;;;;;19.63;10.52;;;;;;;0.17;100.00;101855.97;5053684;28;20037;-70
2024/01/31 00:34:10;;;;;;;15.93;9.80;;;;;;;0.80;100.00;101922.94;5062588;28;20063;-70
2024/01/31 00:36:36;;;;;;;17.77;10.18;;;;;;;0.99;100.00;101950.44;5055290;28;20053;-70
2024/01/31 00:39:01;;;;;;;19.83;10.30;;;;;;;1.01;100.00;101923.81;5058055;28;20036;-71
2024/01/31 00:41:27;;;;;;;17.10;10.05;;;;;;;0.20;100.00;101797.75;5060756;28;20115;-71
2024/01/31 00:43:52;;;;;;;16.02;9.45;;;;;;;0.90;100.00;101905.00;5060470;28;20169;-70
2024/01/31 00:46:18;;;;;;;15.55;10.00;;;;;;;1.11;100.00;101940.13;5056731;28;20032;-69
2024/01/31 00:48:44;;;;;;;15.38;9.80;;;;;;;0.91;100.00;101976.84;5058669;28;20552;-69
2024/01/31 00:51:10;;;;;;;15.30;9.60;;;;;;;0.81;100.00;102000.56;5064049;28;20733;-69
2024/01/31 00:53:36;;;;;;;15.98;10.07;;;;;;;0.70;100.00;102010.91;5062620;28;20102;-72
2024/01/31 00:56:02;;;;;;;15.45;10.07;;;;;;;0.67;100.00;101915.69;5058590;28;20048;-70
2024/01/31 00:58:27;;;;;;;16.15;10.13;;;;;;;0.19;100.00;101888.53;5063200;28;20040;-73
2024/01/31 01:00:53;;;;;;;17.30;9.85;;;;;;;0.36;100.00;101877.63;5058946;28;20495;-70
2024/01/31 01:03:19;;;;;;;16.48;9.27;;;;;;;0.13;100.00;101823.25;5063555;28;20033;-69
2024/01/31 01:05:45;;;;;;;14.38;9.30;;;;;;;-0.26;100.00;101848.19;5058599;28;20086;-70
2024/01/31 01:08:11;;;;;;;13.88;8.80;;;;;;;0.68;100.00;102002.47;5065098;28;20036;-69
2024/01/31 01:10:36;;;;;;;15.45;9.73;;;;;;;0.35;100.00;101800.91;5061214;28;20068;-71
2024/01/31 01:13:02;;;;;;;14.77;9.82;;;;;;;0.88;100.00;101941.63;5056368;28;20029;-70
2024/01/31 01:15:27;;;;;;;14.27;9.57;;;;;;;0.56;100.00;101990.28;5065270;28;20040;-74
2024/01/31 01:17:53;;;;;;;16.55;9.75;;;;;;;0.42;100.00;101991.31;5053390;28;20466;-68
2024/01/31 01:20:18;;;;;;;16.33;10.13;;;;;;;-0.19;100.00;101890.16;5060076;28;20040;-70
2024/01/31 01:22:45;;;;;;;14.10;8.95;;;;;;;0.51;100.00;101955.84;5063426;28;20029;-69
2024/01/31 01:25:11;;;;;;;14.65;9.15;;;;;;;-0.59;100.00;101760.88;5065819;28;20514;-69
2024/01/31 01:27:36;;;;;;;15.13;9.52;;;;;;;0.56;100.00;101954.41;5061634;28;20112;-70
2024/01/31 01:30:02;;;;;;;14.98;9.45;;;;;;;-0.32;100.00;101769.63;5060475;28;20025;-70
2024/01/31 01:32:28;;;;;;;13.30;9.45;;;;;;;0.82;100.00;101861.28;5064415;28;20464;-71
2024/01/31 01:34:53;;;;;;;15.35;10.18;;;;;;;0.55;100.00;101893.53;5060166;28;20024;-71
2024/01/31 01:37:19;;;;;;;12.85;9.25;;;;;;;0.47;100.00;101826.44;5058480;28;20060;-69
2024/01/31 01:39:45;;;;;;;16.42;10.77;;;;;;;0.99;100.00;101940.44;5059769;28;20032;-69
2024/01/31 01:42:12;;;;;;;18.40;10.88;;;;;;;0.67;100.00;101968.25;5063768;28;20029;-72
2024/01/31 01:44:45;;;;;;;14.82;9.90;;;;;;;0.09;100.00;101816.41;5060191;28;20116;-71
2024/01/31 01:47:12;;;;;;;16.38;9.93;;;;;;;0.71;100.00;101997.63;5071176;28;20041;-71
2024/01/31 01:49:38;;;;;;;16.33;10.02;;;;;;;0.35;100.00;101778.41;5058660;28;20495;-70
2024/01/31 01:52:04;;;;;;;16.58;9.82;;;;;;;1.06;100.00;101939.91;5055530;28;20526;-70
2024/01/31 01:54:31;;;;;;;16.20;10.07;;;;;;;0.84;100.00;101892.22;5062622;28;20068;-69
2024/01/31 01:56:58;;;;;;;16.75;10.73;;;;;;;0.67;100.00;101978.25;5059201;28;20521;-70
2024/01/31 01:59:24;;;;;;;15.60;9.45;;;;;;;0.12;100.00;101967.41;5057793;28;20486;-70
2024/01/31 02:01:50;;;;;;;15.45;9.95;;;;;;;0.26;100.00;101836.34;5058688;28;20028;-73
2024/01/31 02:04:17;;;;;;;17.42;10.75;;;;;;;0.05;100.00;101809.56;5061466;28;20500;-71
2024/01/31 02:06:42;;;;;;;15.48;9.80;;;;;;;-0.33;100.00;101820.38;5062223;28;21442;-70
2024/01/31 02:09:08;;;;;;;17.27;10.15;;;;;;;-0.01;100.00;101850.16;5066709;28;20024;-70
2024/01/31 02:11:35;;;;;;;16.20;9.82;;;;;;;-0.35;100.00;101912.72;5059399;28;20024;-71
2024/01/31 02:14:00;;;;;;;14.85;9.38;;;;;;;-0.28;100.00;101823.94;5060573;28;20455;-71
2024/01/31 02:16:26;;;;;;;15.95;9.75;;;;;;;-0.22;100.00;101804.22;5061925;28;20098;-71
2024/01/31 02:18:51;;;;;;;14.98;9.90;;;;;;;0.81;100.00;101870.44;5059889;28;20031;-71
2024/01/31 02:21:17;;;;;;;13.85;9.05;;;;;;;-0.07;100.00;101849.88;5056651;28;20511;-70
2024/01/31 02:23:42;;;;;;;14.63;9.73;;;;;;;0.45;100.00;101938.06;5061877;28;20037;-70
2024/01/31 02:26:08;;;;;;;14.55;9.52;;;;;;;0.34;100.00;101935.09;5060609;28;20111;-70
2024/01/31 02:28:33;;;;;;;15.02;9.57;;;;;;;0.77;100.00;101832.72;5059607;28;20036;-71
2024/01/31 02:30:59;;;;;;;15.57;9.52;;;;;;;-0.70;100.00;101717.09;5066114;28;20478;-70
2024/01/31 02:33:24;;;;;;;16.45;10.40;;;;;;;0.74;100.00;101907.66;5059272;28;20040;-71
2024/01/31 02:35:49;;;;;;;15.98;9.40;;;;;;;0.76;100.00;101904.44;5055775;28;20063;-71
2024/01/31 02:38:15;;;;;;;13.73;9.27;;;;;;;0.22;100.00;101793.69;5055174;28;20033;-71
2024/01/31 02:40:40;;;;;;;15.43;9.48;;;;;;;0.76;100.00;101938.59;5059080;28;20056;-70
2024/01/31 02:43:06;;;;;;;17.33;10.10;;;;;;;0.67;100.00;101896.50;5061458;28;20037;-70
2024/01/31 02:45:31;;;;;;;16.73;10.02;;;;;;;-0.03;100.00;101877.59;5061473;28;20028;-70
2024/01/31 02:47:57;;;;;;;16.10;10.23;;;;;;;0.36;100.00;102046.06;5062401;28;20028;-69
2024/01/31 02:50:24;;;;;;;17.38;10.32;;;;;;;-0.10;100.00;101857.25;5059964;28;20056;-69
2024/01/31 02:52:50;;;;;;;17.00;10.60;;;;;;;0.08;100.00;101854.72;5059263;28;20119;-70
2024/01/31 02:55:15;;;;;;;18.85;10.85;;;;;;;0.68;100.00;101912.41;5057308;28;20183;-70
2024/01/31 02:57:41;;;;;;;20.13;11.07;;;;;;;-0.32;100.00;101877.88;5061152;28;20039;-70
2024/01/31 03:00:08;;;;;;;17.60;11.40;;;;;;;0.08;100.00;102025.53;5056948;28;20122;-72
2024/01/31 03:02:35;;;;;;;22.05;14.25;;;;;;;0.08;100.00;102043.03;5058471;28;20025;-71
2024/01/31 03:05:00;;;;;;;25.60;16.45;;;;;;;-0.73;100.00;101880.09;5056446;28;20419;-71
2024/01/31 03:07:26;;;;;;;24.63;15.98;;;;;;;-0.30;100.00;101926.28;5061329;28;20821;-70
2024/01/31 03:09:51;;;;;;;26.25;15.73;;;;;;;-0.53;100.00;101806.09;5060141;28;20020;-70
2024/01/31 03:12:17;;;;;;;23.10;15.07;;;;;;;-0.71;100.00;101841.06;5057309;28;20028;-70
2024/01/31 03:14:42;;;;;;;22.45;14.90;;;;;;;-0.50;100.00;102094.34;5060008;28;20031;-71
2024/01/31 03:17:07;;;;;;;22.40;13.82;;;;;;;-0.46;100.00;101813.97;5059594;28;20100;-73
2024/01/31 03:19:33;;;;;;;21.33;14.15;;;;;;;0.12;100.00;101897.41;5057985;28;20064;-72
2024/01/31 03:21:58;;;;;;;19.63;12.07;;;;;;;0.27;100.00;101913.09;5055564;28;20036;-70
2024/01/31 03:24:25;;;;;;;19.25;11.52;;;;;;;0.42;100.00;101873.75;5062569;28;20051;-70
2024/01/31 03:26:50;;;;;;;17.92;11.05;;;;;;;0.40;100.00;101884.47;5057474;28;20032;-71
2024/01/31 03:29:16;;;;;;;20.17;12.43;;;;;;;0.28;100.00;101883.97;5058644;28;20036;-71
2024/01/31 03:31:41;;;;;;;17.73;11.80;;;;;;;0.27;100.00;101882.22;5058398;28;20466;-71
2024/01/31 03:34:07;;;;;;;18.35;12.20;;;;;;;-0.49;100.00;101776.34;5059443;28;20025;-72
2024/01/31 03:36:33;;;;;;;18.83;11.95;;;;;;;0.09;100.00;101959.78;5062193;28;20412;-69
2024/01/31 03:38:59;;;;;;;18.45;11.75;;;;;;;0.02;100.00;101907.78;5055242;28;20037;-69
2024/01/31 03:41:26;;;;;;;15.70;10.48;;;;;;;0.19;100.00;101936.03;5053394;28;20032;-72
2024/01/31 03:43:52;;;;;;;16.33;10.80;;;;;;;-0.26;100.00;101827.38;5061577;28;20036;-72
2024/01/31 03:46:18;;;;;;;18.02;10.90;;;;;;;0.14;100.00;101982.50;5065537;28;20036;-69
2024/01/31 03:48:43;;;;;;;17.13;10.25;;;;;;;0.21;100.00;101964.47;5054976;28;20032;-70
2024/01/31 03:51:22;;;;;;;15.32;10.13;;;;;;;0.16;100.00;101943.41;5057221;28;20101;-70
2024/01/31 03:53:48;;;;;;;14.73;9.95;;;;;;;0.23;100.00;101932.91;5059879;28;20475;-69
2024/01/31 03:56:17;;;;;;;17.38;11.00;;;;;;;0.07;100.00;102002.97;5060362;28;20041;-73
2024/01/31 03:58:43;;;;;;;18.73;11.38;;;;;;;0.18;100.00;101919.34;5063395;28;20033;-71
2024/01/31 04:01:09;;;;;;;16.83;10.48;;;;;;;-0.74;100.00;101880.88;5061186;28;20526;-70
2024/01/31 04:03:37;;;;;;;19.05;11.15;;;;;;;-0.65;100.00;101806.41;5067621;28;20100;-70
2024/01/31 04:06:02;;;;;;;16.77;11.27;;;;;;;0.10;100.00;101973.13;5069926;28;20029;-70
2024/01/31 04:08:28;;;;;;;18.48;11.73;;;;;;;-0.47;100.00;101757.31;5055780;28;20043;-70
2024/01/31 04:10:53;;;;;;;16.88;11.15;;;;;;;-0.45;100.00;101868.13;5057822;28;20033;-73
2024/01/31 04:13:19;;;;;;;19.52;12.57;;;;;;;0.02;100.00;101911.94;5056273;28;20121;-71
2024/01/31 04:15:45;;;;;;;19.15;11.57;;;;;;;0.38;100.00;101824.38;5059251;28;20036;-70
2024/01/31 04:18:11;;;;;;;15.30;10.32;;;;;;;-0.51;100.00;101877.81;5059289;28;20041;-72
2024/01/31 04:20:40;;;;;;;15.27;9.85;;;;;;;-0.13;100.00;101990.41;5051678;28;20086;-70
2024/01/31 04:23:06;;;;;;;16.05;10.73;;;;;;;-0.45;100.00;101957.16;5052945;28;20052;-71
2024/01/31 04:25:32;;;;;;;16.30;10.70;;;;;;;-0.67;100.00;101850.41;5051825;28;20379;-71
2024/01/31 04:27:57;;;;;;;14.82;9.65;;;;;;;-0.54;100.00;101791.94;5052271;28;20032;-70
2024/01/31 04:30:23;;;;;;;15.23;9.73;;;;;;;-0.82;100.00;101869.66;5056451;28;20499;-71
2024/01/31 04:32:48;;;;;;;14.95;10.27;;;;;;;-0.14;100.00;101960.38;5055052;28;20032;-71
2024/01/31 04:35:14;;;;;;;15.38;10.30;;;;;;;0.05;100.00;101925.41;5053026;28;20033;-70
2024/01/31 04:37:39;;;;;;;15.80;10.25;;;;;;;-0.49;100.00;101768.88;5048757;28;20439;-70
2024/01/31 04:40:05;;;;;;;16.48;10.25;;;;;;;0.31;100.00;101909.94;5050515;28;20431;-70
2024/01/31 04:42:31;;;;;;;17.45;10.55;;;;;;;-0.32;100.00;102017.78;5051585;28;20037;-72
2024/01/31 04:44:57;;;;;;;26.45;15.65;;;;;;;-0.81;100.00;101851.41;5051005;28;20106;-72
2024/01/31 04:47:25;;;;;;;36.53;20.58;;;;;;;-0.93;100.00;101883.25;5046877;28;20493;-75
2024/01/31 04:49:56;;;;;;;39.53;23.60;;;;;;;-1.09;100.00;101950.66;5050254;28;20060;-72
2024/01/31 04:52:22;;;;;;;35.35;20.48;;;;;;;-0.47;100.00;102007.06;5051281;28;20029;-74
2024/01/31 04:54:47;;;;;;;26.58;15.90;;;;;;;-0.27;100.00;101980.53;5051347;28;20048;-73
2024/01/31 04:57:13;;;;;;;26.65;16.58;;;;;;;-0.66;100.00;102048.53;5050010;28;20473;-71
2024/01/31 04:59:39;;;;;;;27.67;17.23;;;;;;;-0.46;100.00;101977.94;5052617;28;20033;-71
2024/01/31 05:02:06;;;;;;;31.05;20.38;;;;;;;-1.55;100.00;101879.28;5054156;28;20029;-71
2024/01/31 05:04:33;;;;;;;35.83;24.15;;;;;;;-1.13;100.00;101878.94;5051548;28;20130;-71
2024/01/31 05:06:59;;;;;;;40.83;27.67;;;;;;;-2.40;100.00;101787.63;5048666;28;20036;-72
2024/01/31 05:09:25;;;;;;;48.28;30.35;;;;;;;-2.40;100.00;101780.16;5048981;28;20101;-72
2024/01/31 05:11:50;;;;;;;56.45;33.17;;;;;;;-1.13;100.00;102031.97;5052383;28;20033;-72
2024/01/31 05:14:16;;;;;;;62.58;36.53;;;;;;;-1.30;100.00;102026.88;5052033;28;20028;-73
2024/01/31 05:16:42;;;;;;;69.20;38.13;;;;;;;-1.79;100.00;101921.25;5051058;28;20021;-74
2024/01/31 05:19:08;;;;;;;50.40;29.83;;;;;;;-1.75;100.00;101933.09;5049655;28;20085;-70
2024/01/31 05:21:34;;;;;;;42.45;25.60;;;;;;;-2.07;100.00;101849.16;5048374;28;20769;-71
2024/01/31 05:24:00;;;;;;;38.13;23.17;;;;;;;-1.55;100.00;101982.34;5049867;28;20040;-71
2024/01/31 05:26:25;;;;;;;37.60;24.23;;;;;;;-1.35;100.00;102008.34;5048607;28;20025;-70
2024/01/31 05:28:51;;;;;;;46.30;30.17;;;;;;;-1.40;100.00;101993.13;5049295;28;20033;-72
2024/01/31 05:31:16;;;;;;;47.65;30.15;;;;;;;-2.36;100.00;101881.63;5056680;28;20114;-72
2024/01/31 05:33:41;;;;;;;44.72;28.27;;;;;;;-1.96;100.00;102062.34;5056127;28;20021;-72
2024/01/31 05:36:07;;;;;;;38.30;25.00;;;;;;;-2.64;100.00;101895.81;5056328;28;20040;-71
2024/01/31 05:38:32;;;;;;;29.60;18.33;;;;;;;-2.42;100.00;101840.59;5061213;28;20037;-72
2024/01/31 05:40:58;;;;;;;31.27;18.35;;;;;;;-1.91;100.00;101956.34;5059058;28;20045;-70
2024/01/31 05:43:23;;;;;;;33.78;16.77;;;;;;;2.04;100.00;100895.72;5057605;28;20089;-71
2024/01/31 05:45:49;;;;;;;45.28;24.75;;;;;;;-1.21;100.00;101782.94;5061071;28;20090;-71
2024/01/31 05:48:14;;;;;;;40.92;26.88;;;;;;;-1.99;100.00;101768.22;5063697;28;20033;-73
2024/01/31 05:50:40;;;;;;;29.38;18.17;;;;;;;-1.58;100.00;101637.31;5058620;28;20040;-70
2024/01/31 05:53:05;;;;;;;32.13;19.55;;;;;;;-2.23;100.00;101599.25;5059595;28;20044;-71
2024/01/31 05:55:31;;;;;;;70.40;39.63;;;;;;;-1.69;100.00;101738.13;5054371;28;20045;-70
2024/01/31 05:57:56;;;;;;;67.47;37.72;;;;;;;-2.13;100.00;101567.41;5060613;28;20492;-72
2024/01/31 06:00:22;;;;;;;39.42;22.92;;;;;;;-1.70;100.00;101704.03;5059539;28;20043;-71
2024/01/31 06:02:47;;;;;;;28.52;16.23;;;;;;;-1.52;100.00;101615.16;5063319;28;20063;-73
2024/01/31 06:05:13;;;;;;;45.22;22.55;;;;;;;0.00;100.00;101465.34;5062859;28;20162;-71
2024/01/31 06:07:39;;;;;;;30.65;17.58;;;;;;;1.52;100.00;101201.03;5062677;28;20507;-69
2024/01/31 06:10:05;;;;;;;32.50;17.15;;;;;;;2.04;100.00;101002.72;5062031;28;20116;-70
2024/01/31 06:12:31;;;;;;;35.65;18.55;;;;;;;2.75;100.00;101215.09;5058121;28;20024;-71
2024/01/31 06:14:56;;;;;;;41.97;25.95;;;;;;;3.19;100.00;101244.59;5057960;28;20071;-71
2024/01/31 06:17:22;;;;;;;51.33;35.47;;;;;;;2.96;100.00;101298.44;5064213;28;20115;-71
2024/01/31 06:19:48;;;;;;;59.28;35.83;;;;;;;3.94;100.00;101276.31;5055931;28;20032;-72
2024/01/31 06:22:13;;;;;;;125.53;69.20;;;;;;;4.56;100.00;101166.69;5062739;28;20037;-71
2024/01/31 06:24:39;;;;;;;162.85;90.38;;;;;;;3.94;100.00;101351.78;5059629;28;20036;-73
2024/01/31 06:27:04;;;;;;;149.88;87.15;;;;;;;4.93;100.00;101430.94;5053390;28;20025;-71
2024/01/31 06:29:30;;;;;;;104.97;66.22;;;;;;;4.54;100.00;101571.19;5061729;28;20029;-72
2024/01/31 06:31:59;;;;;;;76.97;49.85;;;;;;;5.47;100.00;101488.22;5061760;28;20051;-71
2024/01/31 06:34:25;;;;;;;75.32;49.97;;;;;;;6.41;100.00;101597.44;5058213;28;20086;-71
2024/01/31 06:36:51;;;;;;;92.15;69.70;;;;;;;4.30;100.00;101885.28;5059959;28;20483;-73
2024/01/31 06:39:17;;;;;;;120.57;81.97;;;;;;;5.26;100.00;101768.50;5057364;28;20045;-72
2024/01/31 06:41:42;;;;;;;141.07;94.80;;;;;;;6.64;100.00;101550.63;5055111;28;20503;-73
2024/01/31 06:44:08;;;;;;;152.15;102.85;;;;;;;6.77;100.00;101787.50;5058498;28;20024;-71
2024/01/31 06:46:33;;;;;;;161.15;106.68;;;;;;;6.74;100.00;101630.78;5061693;28;20036;-72
2024/01/31 06:48:59;;;;;;;153.10;106.53;;;;;;;7.55;100.00;101728.78;5057397;28;20036;-71
2024/01/31 06:51:24;;;;;;;126.90;91.05;;;;;;;5.05;100.00;101972.19;5060674;28;20024;-72
2024/01/31 06:53:50;;;;;;;128.63;89.32;;;;;;;5.34;100.00;101521.59;5056210;28;20029;-71
2024/01/31 06:56:17;;;;;;;155.73;96.80;;;;;;;6.14;100.00;101835.19;5063868;28;20044;-72
2024/01/31 06:58:45;;;;;;;155.80;101.40;;;;;;;6.06;100.00;101871.22;5060564;28;20024;-71
2024/01/31 07:01:14;;;;;;;110.78;72.47;;;;;;;4.90;100.00;102259.00;5054070;28;20403;-70
2024/01/31 07:03:39;;;;;;;97.35;66.45;;;;;;;2.83;100.00;102537.84;5061407;28;20033;-70
2024/01/31 07:06:06;;;;;;;227.05;157.18;;;;;;;3.28;100.00;102446.84;5059053;28;20049;-70
2024/01/31 07:08:32;;;;;;;140.05;99.65;;;;;;;3.12;100.00;102267.72;5055888;28;20037;-70
2024/01/31 07:10:57;;;;;;;102.30;73.32;;;;;;;3.81;100.00;102292.16;5054696;28;20107;-70
2024/01/31 07:13:22;;;;;;;92.68;68.82;;;;;;;2.86;100.00;102231.53;5060020;28;20034;-74
2024/01/31 07:15:48;;;;;;;88.38;61.25;;;;;;;3.87;100.00;102267.22;5055649;28;20029;-70
2024/01/31 07:18:13;;;;;;;81.25;55.78;;;;;;;2.62;100.00;102494.16;5059913;28;20037;-70
2024/01/31 07:20:39;;;;;;;78.60;56.03;;;;;;;1.48;100.00;102457.88;5059156;28;20417;-71
2024/01/31 07:23:04;;;;;;;69.97;49.42;;;;;;;2.31;100.00;102361.44;5056447;28;20093;-70
2024/01/31 07:25:30;;;;;;;56.42;42.00;;;;;;;3.43;100.00;102168.41;5063263;28;20028;-70
2024/01/31 07:27:56;;;;;;;48.78;35.05;;;;;;;3.05;100.00;102260.75;5059056;28;20532;-70
2024/01/31 07:30:22;;;;;;;46.75;34.60;;;;;;;3.05;100.00;101924.13;5059578;28;20398;-73
2024/01/31 07:32:47;;;;;;;48.63;35.30;;;;;;;3.92;100.00;102070.34;5060498;28;20045;-70
2024/01/31 07:35:14;;;;;;;37.22;27.85;;;;;;;2.09;100.00;102297.72;5062278;28;20445;-71
2024/01/31 07:37:40;;;;;;;28.98;21.13;;;;;;;2.37;100.00;102089.81;5063513;28;20035;-71
2024/01/31 07:40:06;;;;;;;35.25;24.25;;;;;;;3.67;100.00;102027.59;5057352;28;20024;-71
2024/01/31 07:42:33;;;;;;;32.65;22.85;;;;;;;3.58;100.00;102008.84;5059245;28;20032;-72
2024/01/31 07:44:58;;;;;;;36.13;24.55;;;;;;;1.64;100.00;101975.72;5059467;28;20055;-71
2024/01/31 07:47:24;;;;;;;28.52;20.55;;;;;;;3.16;100.00;101906.09;5059527;28;20057;-71
2024/01/31 07:49:49;;;;;;;33.05;23.13;;;;;;;2.79;100.00;101935.78;5058709;28;20075;-71
2024/01/31 07:52:15;;;;;;;30.38;20.92;;;;;;;3.13;100.00;101849.88;5060115;28;20033;-71
2024/01/31 07:54:40;;;;;;;24.15;16.90;;;;;;;3.13;100.00;101902.63;5056777;28;20403;-71
2024/01/31 07:57:06;;;;;;;28.05;18.95;;;;;;;3.20;100.00;101932.16;5062763;28;20107;-71
2024/01/31 07:59:31;;;;;;;27.10;18.92;;;;;;;4.11;100.00;101924.19;5063095;28;20556;-71
2024/01/31 08:01:57;;;;;;;31.83;19.13;;;;;;;3.51;100.00;101842.72;5062885;28;21634;-71
2024/01/31 08:04:22;;;;;;;25.17;17.23;;;;;;;3.57;100.00;101848.72;5060553;28;20107;-70
2024/01/31 08:06:47;;;;;;;22.08;15.82;;;;;;;4.16;100.00;101750.69;5054239;28;20025;-71
2024/01/31 08:09:15;;;;;;;19.70;15.00;;;;;;;3.40;100.00;102125.56;5055175;28;20072;-70
2024/01/31 08:11:44;;;;;;;22.23;15.43;;;;;;;3.75;100.00;102045.44;5061299;28;20037;-70
2024/01/31 08:14:09;;;;;;;20.83;14.85;;;;;;;4.11;100.00;101898.16;5058924;28;20098;-70
2024/01/31 08:16:35;;;;;;;21.27;14.63;;;;;;;4.05;100.00;102022.13;5058205;28;20037;-70
2024/01/31 08:19:01;;;;;;;20.58;14.52;;;;;;;4.15;100.00;102001.47;5059803;28;20029;-70
2024/01/31 08:21:26;;;;;;;20.23;14.35;;;;;;;3.66;100.00;101927.81;5058266;28;20079;-71
2024/01/31 08:23:52;;;;;;;21.70;13.88;;;;;;;3.72;100.00;101851.72;5058830;28;20044;-70
2024/01/31 08:26:17;;;;;;;21.88;15.63;;;;;;;3.85;100.00;101899.91;5064411;28;20065;-71
2024/01/31 08:28:43;;;;;;;22.10;14.55;;;;;;;3.99;100.00;101761.94;5060316;28;20032;-71
2024/01/31 08:31:09;;;;;;;22.15;13.80;;;;;;;4.57;100.00;101975.84;5054010;28;20051;-72
2024/01/31 08:33:35;;;;;;;23.45;14.07;;;;;;;4.01;100.00;101863.47;5058532;28;20491;-71
2024/01/31 08:36:00;;;;;;;21.33;13.23;;;;;;;4.09;100.00;102051.63;5057262;28;20113;-71
2024/01/31 08:38:25;;;;;;;20.25;12.77;;;;;;;2.81;100.00;101988.56;5060186;28;20037;-73
2024/01/31 08:40:51;;;;;;;17.92;11.32;;;;;;;4.00;100.00;102040.41;5058207;28;20029;-73
2024/01/31 08:43:17;;;;;;;16.65;12.70;;;;;;;4.52;100.00;101925.34;5061849;28;20040;-72
2024/01/31 08:45:42;;;;;;;20.45;15.70;;;;;;;3.07;100.00;101940.94;5058353;28;20492;-71
2024/01/31 08:48:08;;;;;;;36.35;24.85;;;;;;;3.81;100.00;102025.53;5054434;28;20154;-71
2024/01/31 08:50:33;;;;;;;19.40;13.40;;;;;;;3.30;100.00;101979.41;5062784;28;20020;-72
2024/01/31 08:52:59;;;;;;;18.33;12.75;;;;;;;3.62;100.00;101910.94;5055875;28;20117;-70
2024/01/31 08:55:24;;;;;;;16.30;11.00;;;;;;;4.19;100.00;102033.50;5054652;28;20040;-71
2024/01/31 08:57:50;;;;;;;14.82;10.25;;;;;;;4.70;100.00;101885.56;5060192;28;20063;-71
2024/01/31 09:00:16;;;;;;;16.48;11.88;;;;;;;4.78;100.00;101921.03;5052896;28;20027;-71
2024/01/31 09:02:41;;;;;;;21.98;14.50;;;;;;;4.48;100.00;102026.81;5059456;28;20504;-71
2024/01/31 09:05:10;;;;;;;20.00;14.18;;;;;;;4.70;100.00;101933.41;5066305;28;20032;-71
2024/01/31 09:07:35;;;;;;;20.77;14.10;;;;;;;4.86;100.00;101932.16;5062182;28;20717;-71
2024/01/31 09:10:01;;;;;;;22.73;12.73;;;;;;;4.62;100.00;101975.16;5057777;28;20089;-73
2024/01/31 09:12:28;;;;;;;19.38;10.77;;;;;;;4.43;100.00;101786.63;5057704;28;20130;-71
2024/01/31 09:14:53;;;;;;;15.68;9.65;;;;;;;4.14;100.00;101946.91;5054611;28;20104;-71
2024/01/31 09:17:20;;;;;;;14.63;9.02;;;;;;;4.48;100.00;102059.53;5060621;28;20107;-71
2024/01/31 09:19:45;;;;;;;12.07;8.77;;;;;;;3.98;100.00;101893.59;5059312;28;20032;-71
2024/01/31 09:22:10;;;;;;;13.13;9.30;;;;;;;4.62;100.00;101835.78;5059645;28;20040;-72
2024/01/31 09:24:37;;;;;;;10.73;7.72;;;;;;;5.85;100.00;101908.59;5060036;28;20029;-71
2024/01/31 09:27:03;;;;;;;11.73;7.15;;;;;;;5.66;100.00;101858.53;5059600;28;20517;-70
2024/01/31 09:29:28;;;;;;;13.98;7.53;;;;;;;5.57;100.00;101961.72;5060520;28;20037;-70
2024/01/31 09:31:54;;;;;;;11.02;6.75;;;;;;;5.49;100.00;101847.19;5062987;28;20028;-70
2024/01/31 09:34:19;;;;;;;9.95;6.05;;;;;;;5.69;100.00;102007.44;5054920;28;20029;-69
2024/01/31 09:36:48;;;;;;;9.30;6.28;;;;;;;5.59;100.00;102046.72;5066498;28;20029;-70
2024/01/31 09:39:14;;;;;;;11.05;6.53;;;;;;;5.10;100.00;101875.69;5062902;28;20039;-71
2024/01/31 09:41:40;;;;;;;9.02;5.65;;;;;;;5.20;100.00;101875.09;5059992;28;20029;-71
2024/01/31 09:44:06;;;;;;;18.15;9.57;;;;;;;5.97;100.00;101962.75;5056089;28;20025;-72
2024/01/31 09:46:32;;;;;;;12.30;8.57;;;;;;;5.46;100.00;102046.38;5056380;28;20048;-71
2024/01/31 09:48:57;;;;;;;13.80;8.25;;;;;;;5.41;100.00;101906.69;5061545;28;20475;-71
2024/01/31 09:51:25;;;;;;;10.63;7.38;;;;;;;6.02;100.00;101905.63;5063644;28;20040;-71
2024/01/31 09:53:57;;;;;;;18.60;7.50;;;;;;;5.50;100.00;101859.84;5058919;28;20514;-71
2024/01/31 09:56:31;;;;;;;11.38;7.78;;;;;;;5.78;100.00;101858.78;5060077;28;20029;-71
2024/01/31 09:58:57;;;;;;;9.40;7.00;;;;;;;5.50;100.00;101806.88;5061017;28;20043;-71
2024/01/31 10:01:26;;;;;;;10.32;6.93;;;;;;;6.03;100.00;101892.19;5056565;28;20025;-74
2024/01/31 10:03:52;;;;;;;9.80;7.18;;;;;;;5.96;100.00;101749.00;5061286;28;20036;-72
2024/01/31 10:06:19;;;;;;;11.02;6.80;;;;;;;5.60;100.00;101762.53;5058111;28;20039;-71
2024/01/31 10:08:46;;;;;;;8.25;6.70;;;;;;;5.71;100.00;101773.69;5055585;28;20402;-71
2024/01/31 10:11:12;;;;;;;10.05;6.75;;;;;;;5.59;100.00;101735.59;5061978;28;20024;-71
2024/01/31 10:13:38;;;;;;;10.55;7.40;;;;;;;6.71;100.00;101809.31;5064268;28;20044;-72
2024/01/31 10:16:04;;;;;;;10.32;7.03;;;;;;;5.86;100.00;101721.03;5057922;28;20020;-71
2024/01/31 10:18:30;;;;;;;14.43;10.18;;;;;;;6.74;100.00;101706.59;5058618;28;20119;-71
2024/01/31 10:20:57;;;;;;;14.25;8.80;;;;;;;6.60;100.00;101700.47;5056759;28;21123;-71
2024/01/31 10:23:23;;;;;;;15.00;9.52;;;;;;;7.34;100.00;101733.59;5058712;28;20483;-69
2024/01/31 10:25:49;;;;;;;21.35;13.30;;;;;;;7.42;100.00;101737.06;5059580;28;20021;-71
2024/01/31 10:28:18;;;;;;;11.95;7.60;;;;;;;6.76;100.00;101639.22;5060615;28;20036;-72
2024/01/31 10:30:45;;;;;;;10.43;7.57;;;;;;;7.31;100.00;101676.22;5058350;28;20517;-71
2024/01/31 10:33:12;;;;;;;15.30;7.95;;;;;;;6.96;100.00;101660.59;5056823;28;20044;-72
2024/01/31 10:35:40;;;;;;;9.23;6.65;;;;;;;7.00;100.00;101823.28;5052670;28;20128;-74
2024/01/31 10:38:07;;;;;;;13.13;7.85;;;;;;;6.75;100.00;101709.97;5057594;28;20491;-73
2024/01/31 10:40:33;;;;;;;8.95;6.15;;;;;;;6.35;100.00;101680.69;5059604;28;20483;-71
2024/01/31 10:43:00;;;;;;;16.70;10.60;;;;;;;6.82;100.00;101651.97;5062974;28;20053;-72
2024/01/31 10:45:26;;;;;;;9.80;6.22;;;;;;;7.76;100.00;101714.72;5055947;28;20502;-70
2024/01/31 10:47:53;;;;;;;8.90;5.20;;;;;;;7.01;100.00;101815.72;5054318;28;20021;-70
2024/01/31 10:50:18;;;;;;;9.75;5.50;;;;;;;7.91;100.00;101665.94;5056702;28;20028;-74
2024/01/31 10:52:46;;;;;;;10.30;6.65;;;;;;;7.27;100.00;101596.06;5061220;28;20407;-70
2024/01/31 10:55:13;;;;;;;6.78;4.60;;;;;;;6.92;100.00;101656.31;5058847;28;20469;-71
2024/01/31 10:57:40;;;;;;;6.25;4.40;;;;;;;7.81;100.00;101697.06;5059037;28;20025;-70
2024/01/31 11:00:09;;;;;;;8.68;4.97;;;;;;;8.04;100.00;101695.63;5059103;28;20029;-69
2024/01/31 11:02:35;;;;;;;6.50;4.88;;;;;;;6.84;100.00;101654.50;5054860;28;20404;-70